La Plata, New Mexico
Current Conditions -  °F | °C
As of 7:53 PM on Saturday 20 Dec 2014 (Local Time) from KFMN Reporting Station
Scattered Clouds Scattered Clouds  
Wind Chill: 28°   Ceiling: Unl
Heat Index: 33°   Visibility: 10mi
Dew Point: 28°   Wind: 6mph
Humidity: 82%   Direction: 260°W
Pressure: 30.1"   Gusts: NA
Location:  36.93°N, 108.19°W
Report Text: KFMN 210253Z 26005KT 10SM SCT100 01/M02 A3010 RMK AO2 SLP214 T00061022 50001
Loading
Personal Weather Stations






























Interactive Weather Map New forecast layout! Learn more

10-Day Weather Forecast

Advertisements
Track Severe Weather on mobile